Aranspass, Texas
Current Conditions -  °F | °C
As of 2:15 PM on Monday 26 Jan 2015 (Local Time) from KTFP Reporting Station
Clear Clear  
Wind Chill: 74°   Ceiling: Unl
Heat Index: 74°   Visibility: 10mi
Dew Point: 40°   Wind: 10mph
Humidity: 29%   Direction: 210°SSW
Pressure: 30.2"   Gusts: 16mph
Location:  27.9399°N, 97.1805°W
Report Text: KTFP 262015Z AUTO 21009G14KT 10SM CLR 23/04 A3020 RMK AO2 T02330043
Loading
Personal Weather Stations






























Interactive Weather Map New forecast layout! Learn more

10-Day Weather Forecast

Advertisements
Track Severe Weather on mobile